Прогноз погоды TAF Витязево

Прогноз погоды TAF: 
TAF URKA 271100Z 2712/2812 18009G14MPS 9999 SCT030CB TEMPO 2712/2812 14012G18MPS 2000 SHRA SCT005 BKN016CB
Аэропорт подробнее: 
Регион: